Time;durP1;ratioP1;P1;durP2;ratioP2;P2;SDS_P1;SDS_P2;PMS_P1;PMS_P2;Temp;Humidity;BMP_temperature;BMP_pressure;BME280_temperature;BME280_humidity;BME280_pressure;Samples;Min_cycle;Max_cycle;Signal;HPM_P1;HPM_P2
2021/12/01 00:01:06;;;;;;;20.90;2.55;;;;;;;9.76;97.28;99885.63;5055217;28;20447;-43
2021/12/01 00:03:32;;;;;;;25.67;3.28;;;;;;;9.78;97.04;99872.84;5055876;28;20072;-44
2021/12/01 00:05:57;;;;;;;32.33;3.05;;;;;;;9.81;96.33;99867.06;5065576;28;20052;-45
2021/12/01 00:08:22;;;;;;;28.77;3.17;;;;;;;9.82;96.34;99865.19;5058593;28;20033;-42
2021/12/01 00:10:48;;;;;;;36.30;4.20;;;;;;;9.83;95.90;99858.81;5051715;28;20082;-41
2021/12/01 00:13:17;;;;;;;31.50;3.67;;;;;;;9.85;95.67;99843.31;5034497;28;20061;-41
2021/12/01 00:15:43;;;;;;;36.70;3.63;;;;;;;9.83;95.45;99848.06;5035723;28;20032;-41
2021/12/01 00:18:09;;;;;;;37.53;5.07;;;;;;;9.91;94.60;99839.00;5053240;28;20025;-41
2021/12/01 00:20:35;;;;;;;35.85;4.43;;;;;;;9.93;94.49;99831.56;5055588;28;20487;-41
2021/12/01 00:23:01;;;;;;;36.95;3.88;;;;;;;9.96;93.94;99831.16;5054663;28;20021;-42
2021/12/01 00:25:27;;;;;;;28.98;4.10;;;;;;;9.97;93.58;99817.50;5055376;28;20032;-42
2021/12/01 00:27:54;;;;;;;24.85;2.90;;;;;;;9.95;94.19;99818.72;5055431;28;20044;-41
2021/12/01 00:30:20;;;;;;;30.77;3.40;;;;;;;9.91;94.27;99833.63;5037554;28;20351;-41
2021/12/01 00:32:46;;;;;;;32.25;3.05;;;;;;;9.93;94.17;99802.00;5035376;28;20041;-43
2021/12/01 00:35:11;;;;;;;33.10;3.08;;;;;;;9.91;94.41;99798.69;5043196;28;20035;-41
2021/12/01 00:37:38;;;;;;;36.55;2.70;;;;;;;9.88;94.60;99781.91;5063408;28;20404;-41
2021/12/01 00:40:10;;;;;;;23.83;3.28;;;;;;;9.93;94.17;99769.75;5073741;28;20035;-41
2021/12/01 00:42:35;;;;;;;25.33;2.40;;;;;;;9.96;93.91;99766.63;5075098;28;20020;-41
2021/12/01 00:45:07;;;;;;;27.50;2.58;;;;;;;9.99;93.12;99780.50;5074914;28;20520;-41
2021/12/01 00:47:52;;;;;;;21.13;2.13;;;;;;;10.00;93.37;99774.06;5075114;28;20078;-41
2021/12/01 00:50:23;;;;;;;24.30;2.75;;;;;;;9.93;94.41;99756.31;5074051;28;20082;-41
2021/12/01 00:52:51;;;;;;;29.30;2.92;;;;;;;9.87;94.54;99748.03;5075114;28;20063;-41
2021/12/01 00:55:16;;;;;;;23.13;2.60;;;;;;;9.87;94.00;99750.72;5074386;28;20143;-41
2021/12/01 00:57:41;;;;;;;23.85;2.78;;;;;;;9.88;94.38;99756.91;5074761;28;20024;-41
2021/12/01 01:00:09;;;;;;;28.50;3.22;;;;;;;9.86;93.81;99740.97;5073147;28;20031;-44
2021/12/01 01:02:34;;;;;;;23.53;3.13;;;;;;;9.91;93.56;99743.06;5054641;28;20029;-41
2021/12/01 01:05:00;;;;;;;19.00;2.55;;;;;;;9.94;92.54;99731.06;5051598;28;20307;-41
2021/12/01 01:07:25;;;;;;;24.00;2.83;;;;;;;9.97;91.68;99730.66;5033149;28;20131;-42
2021/12/01 01:09:51;;;;;;;26.35;3.15;;;;;;;10.03;91.03;99719.06;5033150;28;20064;-41
2021/12/01 01:17:52;;;;;;;15.65;2.20;;;;;;;9.99;91.04;99696.34;5034217;28;20076;-42
2021/12/01 01:20:17;;;;;;;31.50;4.32;;;;;;;10.00;90.44;99692.59;5034112;28;20025;-41
2021/12/01 01:22:42;;;;;;;31.10;3.15;;;;;;;10.04;90.37;99672.34;5034074;28;20083;-41
2021/12/01 01:25:09;;;;;;;27.42;3.22;;;;;;;10.02;90.83;99675.25;5034166;28;20112;-41
2021/12/01 01:27:35;;;;;;;47.47;4.38;;;;;;;10.01;90.67;99667.41;5034144;28;20037;-41
2021/12/01 01:30:00;;;;;;;37.25;3.63;;;;;;;10.01;90.73;99652.09;5034036;28;20488;-41
2021/12/01 01:32:26;;;;;;;42.78;4.80;;;;;;;9.99;90.99;99647.97;5033930;28;20056;-41
2021/12/01 01:34:51;;;;;;;40.30;3.85;;;;;;;9.98;91.31;99635.53;5033996;28;20053;-42
2021/12/01 01:37:17;;;;;;;40.92;4.07;;;;;;;9.98;91.14;99651.66;5033962;28;20033;-43
2021/12/01 01:39:42;;;;;;;33.55;3.38;;;;;;;9.98;90.98;99627.47;5033642;28;20021;-40
2021/12/01 01:42:08;;;;;;;32.03;3.53;;;;;;;9.97;90.78;99625.84;5032418;28;20061;-41
2021/12/01 01:44:33;;;;;;;31.13;3.28;;;;;;;10.05;89.61;99626.44;5033684;28;20029;-41
2021/12/01 01:47:00;;;;;;;35.40;3.08;;;;;;;10.08;89.21;99636.78;5033715;28;20029;-41
2021/12/01 01:49:45;;;;;;;28.25;3.95;;;;;;;10.10;89.25;99612.38;5032512;28;20026;-41
2021/12/01 01:52:10;;;;;;;38.25;3.28;;;;;;;10.07;89.40;99593.97;5032337;28;20473;-41
2021/12/01 01:54:36;;;;;;;30.30;3.25;;;;;;;10.06;89.37;99600.41;5033457;28;20038;-41
2021/12/01 01:57:01;;;;;;;25.23;2.80;;;;;;;10.08;89.05;99592.94;5033411;28;20021;-41
2021/12/01 01:59:26;;;;;;;26.60;3.33;;;;;;;10.05;89.40;99587.97;5033190;28;20037;-41
2021/12/01 02:01:58;;;;;;;35.95;4.47;;;;;;;10.09;88.43;99624.19;5046401;28;20034;-41
2021/12/01 02:04:26;;;;;;;18.20;2.25;;;;;;;10.11;88.30;99553.03;5053047;28;20029;-41
2021/12/01 02:06:51;;;;;;;27.27;2.65;;;;;;;10.11;88.00;99549.53;5034916;28;20389;-41
2021/12/01 02:09:23;;;;;;;14.88;2.60;;;;;;;10.13;87.71;99542.06;5033077;28;20026;-41
2021/12/01 02:11:51;;;;;;;17.30;2.63;;;;;;;10.16;87.26;99540.81;5033296;28;20599;-41
2021/12/01 02:14:16;;;;;;;28.00;2.33;;;;;;;10.19;86.64;99546.59;5033384;28;20034;-41
2021/12/01 02:16:42;;;;;;;18.52;2.67;;;;;;;10.18;86.92;99544.94;5033086;28;20057;-41
2021/12/01 02:19:08;;;;;;;20.90;2.35;;;;;;;10.15;87.40;99521.16;5032901;28;20443;-41
2021/12/01 02:21:34;;;;;;;13.10;1.77;;;;;;;10.12;87.39;99516.22;5033245;28;20393;-41
2021/12/01 02:24:00;;;;;;;15.23;2.97;;;;;;;10.13;87.58;99509.78;5033025;28;20029;-41
2021/12/01 02:26:28;;;;;;;22.65;2.25;;;;;;;10.11;87.66;99517.28;5032991;28;20433;-41
2021/12/01 02:28:56;;;;;;;14.43;1.85;;;;;;;10.13;87.63;99517.84;5031720;28;20167;-41
2021/12/01 02:31:25;;;;;;;17.48;2.63;;;;;;;10.14;87.34;99498.03;5032983;28;20420;-41
2021/12/01 02:33:51;;;;;;;15.75;1.90;;;;;;;10.11;87.48;99501.97;5031428;28;20484;-40
2021/12/01 02:36:16;;;;;;;11.45;1.77;;;;;;;10.13;87.65;99514.34;5032930;28;20028;-41
2021/12/01 02:38:44;;;;;;;11.07;1.60;;;;;;;10.09;87.88;99470.94;5032594;28;20136;-41
2021/12/01 02:41:10;;;;;;;16.35;1.63;;;;;;;10.07;88.38;99462.25;5032701;28;20108;-41
2021/12/01 02:43:36;;;;;;;10.68;1.48;;;;;;;10.02;88.50;99437.88;5032661;28;20741;-40
2021/12/01 02:46:02;;;;;;;11.27;1.92;;;;;;;9.94;89.80;99457.75;5032426;28;20504;-41
2021/12/01 02:48:27;;;;;;;10.65;1.50;;;;;;;9.85;90.80;99449.09;5032800;28;20033;-41
2021/12/01 02:50:53;;;;;;;9.23;1.30;;;;;;;9.78;90.89;99440.22;5033062;28;20535;-40
2021/12/01 02:53:23;;;;;;;9.98;1.92;;;;;;;9.72;92.07;99433.03;5032697;28;20028;-40
2021/12/01 02:55:55;;;;;;;7.43;1.90;;;;;;;9.60;92.33;99418.59;5032787;28;20033;-41
2021/12/01 02:58:21;;;;;;;9.27;1.60;;;;;;;9.54;93.20;99417.56;5032596;28;20052;-40
2021/12/01 03:00:48;;;;;;;10.07;2.30;;;;;;;9.47;93.49;99408.69;5037790;28;20033;-40
2021/12/01 03:03:13;;;;;;;9.50;1.83;;;;;;;9.45;93.41;99395.50;5052396;28;20445;-41
2021/12/01 03:05:39;;;;;;;7.25;1.50;;;;;;;9.42;93.26;99389.69;5043230;28;20106;-40
2021/12/01 03:08:05;;;;;;;10.15;1.70;;;;;;;9.40;93.48;99365.75;5032498;28;20477;-40
2021/12/01 03:10:30;;;;;;;3.70;1.63;;;;;;;9.41;93.39;99396.94;5032374;28;20079;-40
2021/12/01 03:12:56;;;;;;;6.22;1.70;;;;;;;9.40;93.04;99357.69;5032338;28;20117;-43
2021/12/01 03:15:22;;;;;;;6.30;1.60;;;;;;;9.37;93.37;99355.44;5032358;28;20036;-41
2021/12/01 03:17:47;;;;;;;4.55;1.92;;;;;;;9.32;93.88;99339.13;5032350;28;20033;-42
2021/12/01 03:20:14;;;;;;;7.80;1.50;;;;;;;9.24;94.40;99347.38;5032167;28;20080;-41
2021/12/01 03:22:41;;;;;;;12.77;2.00;;;;;;;9.15;94.97;99354.03;5032240;28;20481;-40
2021/12/01 03:25:09;;;;;;;9.80;1.80;;;;;;;9.10;95.47;99327.00;5032307;28;20024;-41
2021/12/01 03:27:35;;;;;;;6.35;2.30;;;;;;;9.05;95.33;99319.56;5032210;28;20086;-41
2021/12/01 03:30:00;;;;;;;6.90;2.22;;;;;;;9.01;95.73;99339.81;5032116;28;20030;-41
2021/12/01 03:32:26;;;;;;;5.32;2.00;;;;;;;8.95;95.52;99314.66;5030882;28;20160;-41
2021/12/01 03:34:51;;;;;;;4.65;2.60;;;;;;;8.90;95.84;99298.34;5032117;28;20045;-40
2021/12/01 03:37:17;;;;;;;3.33;2.25;;;;;;;8.86;96.41;99296.28;5032119;28;20104;-40
2021/12/01 03:39:42;;;;;;;9.10;2.55;;;;;;;8.82;97.03;99287.84;5032152;28;20469;-40
2021/12/01 03:42:07;;;;;;;5.80;2.45;;;;;;;8.78;96.73;99291.94;5031994;28;20173;-40
2021/12/01 03:44:33;;;;;;;4.20;2.55;;;;;;;8.69;97.14;99274.41;5043525;28;20082;-40
2021/12/01 03:46:58;;;;;;;5.53;2.42;;;;;;;8.66;97.26;99274.84;5060643;28;20429;-41
2021/12/01 03:49:24;;;;;;;5.70;2.47;;;;;;;8.64;97.83;99258.16;5052037;28;20428;-40
2021/12/01 03:51:49;;;;;;;7.72;2.72;;;;;;;8.59;97.29;99268.66;5052197;28;20027;-40
2021/12/01 03:54:15;;;;;;;4.18;2.20;;;;;;;8.53;97.53;99263.09;5050653;28;20032;-41
2021/12/01 03:56:40;;;;;;;6.03;2.45;;;;;;;8.51;97.51;99243.72;5051983;28;20029;-40
2021/12/01 03:59:06;;;;;;;4.40;2.50;;;;;;;8.51;97.55;99238.34;5054634;28;20028;-41
2021/12/01 04:01:34;;;;;;;5.82;3.13;;;;;;;8.49;97.11;99239.59;5054747;28;20040;-40
2021/12/01 04:04:00;;;;;;;6.43;2.83;;;;;;;8.50;96.76;99228.63;5055274;28;20087;-40
2021/12/01 04:06:26;;;;;;;3.67;2.65;;;;;;;8.51;100.00;99216.91;5040790;28;20029;-40
2021/12/01 04:08:52;;;;;;;5.50;2.78;;;;;;;8.51;100.00;99200.81;5035345;28;20064;-40
2021/12/01 04:11:18;;;;;;;6.28;2.97;;;;;;;8.48;100.00;99195.88;5035321;28;20026;-40
2021/12/01 04:13:43;;;;;;;6.13;3.60;;;;;;;8.47;98.92;99183.47;5035176;28;20091;-41
2021/12/01 04:16:08;;;;;;;5.90;3.38;;;;;;;8.48;98.04;99190.50;5035237;28;20026;-40
2021/12/01 04:18:34;;;;;;;7.68;3.80;;;;;;;8.46;98.06;99176.47;5035047;28;20044;-40
2021/12/01 04:20:59;;;;;;;6.90;3.90;;;;;;;8.46;98.22;99176.47;5035235;28;20485;-41
2021/12/01 04:23:25;;;;;;;5.25;4.07;;;;;;;8.45;98.02;99172.16;5035108;28;20025;-40
2021/12/01 04:25:50;;;;;;;10.75;4.28;;;;;;;8.46;97.93;99181.03;5035150;28;20116;-40
2021/12/01 04:28:16;;;;;;;10.57;4.07;;;;;;;8.46;97.57;99179.16;5034897;28;20084;-40
2021/12/01 04:30:41;;;;;;;8.25;4.82;;;;;;;8.46;98.07;99159.56;5034959;28;20033;-39
2021/12/01 04:33:07;;;;;;;6.55;4.28;;;;;;;8.46;97.32;99168.44;5034975;28;20428;-40
2021/12/01 04:35:33;;;;;;;6.55;4.05;;;;;;;8.49;97.17;99173.38;5034881;28;20021;-40
2021/12/01 04:37:59;;;;;;;10.30;4.22;;;;;;;8.51;96.97;99144.50;5034789;28;20072;-40
2021/12/01 04:40:25;;;;;;;6.47;3.65;;;;;;;8.51;96.89;99154.41;5034809;28;20137;-41
2021/12/01 04:42:51;;;;;;;5.22;3.72;;;;;;;8.53;96.17;99141.59;5034639;28;20049;-41
2021/12/01 04:45:18;;;;;;;8.07;3.78;;;;;;;8.53;96.42;99139.75;5034771;28;20025;-41
2021/12/01 04:47:52;;;;;;;5.90;4.28;;;;;;;8.54;96.53;99168.22;5034982;28;20061;-40
2021/12/01 04:50:19;;;;;;;6.65;3.97;;;;;;;8.53;96.48;99134.41;5034766;28;20114;-40
2021/12/01 04:52:45;;;;;;;8.65;3.72;;;;;;;8.53;96.40;99166.56;5034448;28;20029;-42
2021/12/01 04:55:11;;;;;;;6.75;3.22;;;;;;;8.58;96.36;99128.38;5034514;28;20022;-40
2021/12/01 04:57:41;;;;;;;7.63;4.00;;;;;;;8.58;95.99;99112.28;5034474;28;20033;-40
2021/12/01 05:00:09;;;;;;;4.40;3.28;;;;;;;8.56;95.58;99107.16;5034534;28;20469;-41
2021/12/01 05:02:34;;;;;;;5.35;2.80;;;;;;;8.60;96.07;99099.50;5034257;28;20047;-41
2021/12/01 05:04:59;;;;;;;5.35;2.70;;;;;;;8.63;95.57;99122.41;5036912;28;20480;-40
2021/12/01 05:07:25;;;;;;;6.28;2.75;;;;;;;8.62;95.70;99099.31;5054187;28;20036;-41
2021/12/01 05:09:51;;;;;;;5.40;2.72;;;;;;;8.60;95.67;99086.09;5053747;28;20029;-41
2021/12/01 05:12:16;;;;;;;2.75;2.35;;;;;;;8.57;95.93;99087.34;5054070;28;20380;-41
2021/12/01 05:14:42;;;;;;;8.25;2.42;;;;;;;8.61;95.63;99084.22;5054090;28;20108;-41
2021/12/01 05:17:07;;;;;;;6.20;2.53;;;;;;;8.64;95.55;99099.94;5053927;28;20020;-40
2021/12/01 05:19:33;;;;;;;7.90;3.03;;;;;;;8.62;95.68;99069.81;5053968;28;20029;-41
2021/12/01 05:21:59;;;;;;;7.70;2.40;;;;;;;8.62;96.22;99083.22;5053969;28;20056;-40
2021/12/01 05:24:24;;;;;;;5.55;2.40;;;;;;;8.60;96.59;99066.50;5053818;28;20413;-41
2021/12/01 05:26:49;;;;;;;7.75;1.98;;;;;;;8.58;97.27;99074.75;5053831;28;20064;-40
2021/12/01 05:29:16;;;;;;;7.13;2.58;;;;;;;8.60;97.37;99063.81;5053786;28;20093;-45
2021/12/01 05:31:41;;;;;;;6.05;2.35;;;;;;;8.65;96.76;99051.44;5048420;28;20100;-46
2021/12/01 05:34:06;;;;;;;7.38;1.88;;;;;;;8.68;96.49;99053.66;5033664;28;20037;-45
2021/12/01 05:36:32;;;;;;;11.75;1.48;;;;;;;8.79;95.44;99060.22;5033757;28;20546;-43
2021/12/01 05:38:57;;;;;;;8.88;1.60;;;;;;;8.80;95.77;99059.19;5033319;28;20090;-41
2021/12/01 05:41:23;;;;;;;6.28;1.45;;;;;;;8.89;94.75;99054.41;5033510;28;20100;-45
2021/12/01 05:43:48;;;;;;;3.47;1.30;;;;;;;8.90;94.42;99038.09;5033489;28;20389;-42
2021/12/01 05:46:13;;;;;;;5.80;1.30;;;;;;;8.90;94.49;99056.03;5042754;28;20053;-40
2021/12/01 05:48:39;;;;;;;6.47;1.67;;;;;;;8.89;94.69;99060.59;5049594;28;20059;-42
2021/12/01 05:51:05;;;;;;;7.50;1.50;;;;;;;8.90;94.07;99048.84;5052171;28;20027;-40
2021/12/01 05:53:30;;;;;;;4.97;1.48;;;;;;;8.92;94.06;99059.34;5050715;28;20447;-42
2021/12/01 05:55:56;;;;;;;6.63;2.53;;;;;;;8.92;94.26;99017.22;5039937;28;20108;-41
2021/12/01 05:58:21;;;;;;;12.48;2.15;;;;;;;8.94;94.13;99028.56;5031198;28;20044;-40
2021/12/01 06:00:48;;;;;;;15.30;2.80;;;;;;;8.92;94.19;99036.00;5030759;28;20029;-40
2021/12/01 06:03:13;;;;;;;7.68;2.58;;;;;;;8.95;94.41;99011.44;5039501;28;20453;-41
2021/12/01 06:05:39;;;;;;;18.92;3.50;;;;;;;8.95;94.33;99006.09;5041896;28;20028;-40
2021/12/01 06:08:06;;;;;;;15.57;2.63;;;;;;;8.95;94.64;99011.44;5039353;28;20111;-40
2021/12/01 06:10:31;;;;;;;16.40;2.58;;;;;;;8.98;94.79;99008.34;5047689;28;20079;-41
2021/12/01 06:12:57;;;;;;;13.93;3.10;;;;;;;8.89;96.41;99003.44;5038926;28;20529;-43
2021/12/01 06:15:22;;;;;;;15.52;3.47;;;;;;;8.84;96.54;99014.81;5041353;28;20041;-48
2021/12/01 06:17:47;;;;;;;15.85;2.50;;;;;;;8.84;96.66;99005.94;5029914;28;20497;-49
2021/12/01 06:20:13;;;;;;;21.98;3.13;;;;;;;8.86;96.61;98998.50;5027992;28;20037;-47
2021/12/01 06:22:40;;;;;;;14.05;2.70;;;;;;;8.87;96.20;99009.00;5030441;28;20052;-45
2021/12/01 06:25:06;;;;;;;19.10;3.15;;;;;;;8.92;95.70;99003.00;5039436;28;20037;-50
2021/12/01 06:27:32;;;;;;;18.48;3.40;;;;;;;8.92;95.81;98998.44;5043867;28;20017;-43
2021/12/01 06:29:57;;;;;;;16.95;3.00;;;;;;;8.89;96.30;99003.44;5045784;28;20028;-50
2021/12/01 06:32:22;;;;;;;16.52;2.95;;;;;;;8.83;96.69;98988.22;5040794;28;20029;-52
2021/12/01 06:34:48;;;;;;;14.43;2.88;;;;;;;8.81;97.01;98996.47;5035680;28;20124;-49
2021/12/01 06:37:15;;;;;;;13.85;3.00;;;;;;;8.81;97.13;98974.19;5034589;28;20032;-47
2021/12/01 06:39:41;;;;;;;10.80;2.40;;;;;;;8.82;96.84;98976.66;5047731;28;20140;-46
2021/12/01 06:42:09;;;;;;;10.80;2.20;;;;;;;8.86;96.25;98971.69;5050449;28;20072;-44
2021/12/01 06:44:34;;;;;;;14.07;2.90;;;;;;;8.88;95.21;98970.41;5035180;28;20037;-44
2021/12/01 06:47:01;;;;;;;27.10;2.75;;;;;;;8.94;95.00;98974.91;5036639;28;20025;-43
2021/12/01 06:49:26;;;;;;;14.52;2.17;;;;;;;8.96;94.34;98970.16;5035123;28;20138;-42
2021/12/01 06:51:51;;;;;;;22.88;2.67;;;;;;;8.99;94.40;98952.81;5038928;28;20117;-42
2021/12/01 06:54:17;;;;;;;18.55;3.15;;;;;;;9.00;93.87;98952.59;5039692;28;20065;-42
2021/12/01 06:56:42;;;;;;;21.75;4.10;;;;;;;9.00;94.17;98952.59;5038999;28;20124;-42
2021/12/01 06:59:08;;;;;;;23.42;2.97;;;;;;;9.03;93.85;98980.84;5034860;28;20026;-41
2021/12/01 07:01:33;;;;;;;18.30;2.53;;;;;;;9.09;93.62;98949.63;5036219;28;20511;-42
2021/12/01 07:03:59;;;;;;;21.85;2.25;;;;;;;9.14;93.01;98941.75;5034019;28;20037;-41
2021/12/01 07:06:24;;;;;;;25.13;4.20;;;;;;;9.23;92.44;98948.47;5031979;28;20040;-41
2021/12/01 07:08:49;;;;;;;24.83;3.22;;;;;;;9.25;92.26;98935.66;5038287;28;20036;-42
2021/12/01 07:11:15;;;;;;;36.58;4.57;;;;;;;9.26;92.54;98934.63;5034701;28;20084;-42
2021/12/01 07:13:40;;;;;;;23.58;3.13;;;;;;;9.20;93.59;98924.75;5042555;28;20106;-41
2021/12/01 07:16:05;;;;;;;21.58;3.05;;;;;;;9.17;94.06;98933.25;5049558;28;20029;-44
2021/12/01 07:18:31;;;;;;;25.63;3.90;;;;;;;9.13;94.32;98945.47;5051553;28;20075;-48
2021/12/01 07:20:57;;;;;;;41.50;4.47;;;;;;;9.14;94.44;98926.47;5053375;28;20537;-45
2021/12/01 07:23:23;;;;;;;38.92;3.97;;;;;;;9.11;94.91;98937.66;5053301;28;20033;-47
2021/12/01 07:25:48;;;;;;;42.60;4.30;;;;;;;9.06;94.56;98933.94;5051929;28;20037;-49
2021/12/01 07:28:14;;;;;;;23.50;3.50;;;;;;;9.07;92.44;98941.78;5051775;28;20097;-45
2021/12/01 07:30:39;;;;;;;26.80;3.47;;;;;;;9.15;91.11;98940.69;5051311;28;20036;-44
2021/12/01 07:33:05;;;;;;;23.23;3.00;;;;;;;9.20;88.85;98944.38;5055316;28;20037;-43
2021/12/01 07:35:30;;;;;;;24.15;2.72;;;;;;;9.20;87.79;98951.59;5055996;28;20541;-42
2021/12/01 07:37:56;;;;;;;25.35;2.40;;;;;;;9.07;84.86;98957.09;5055409;28;20056;-46
2021/12/01 07:40:21;;;;;;;12.55;1.75;;;;;;;8.95;85.04;98940.84;5050332;28;20032;-42
2021/12/01 07:42:46;;;;;;;12.25;1.85;;;;;;;8.90;86.09;98957.63;5039120;28;20037;-41
2021/12/01 07:46:13;;;;;;;26.45;2.55;;;;;;;8.81;84.61;98958.91;5063542;28;20405;-41
2021/12/01 07:48:38;;;;;;;21.13;2.33;;;;;;;8.86;83.38;98969.00;5068832;28;20356;-41
2021/12/01 07:51:04;;;;;;;21.02;2.70;;;;;;;8.85;83.01;98968.19;5069684;28;20037;-41
2021/12/01 07:53:30;;;;;;;15.93;1.63;;;;;;;8.90;82.29;98968.34;5069253;28;20445;-41
2021/12/01 07:55:55;;;;;;;16.60;2.03;;;;;;;8.88;81.78;98975.78;5069694;28;20024;-40
2021/12/01 07:58:21;;;;;;;17.33;2.08;;;;;;;8.89;81.07;98969.38;5069010;28;20029;-41
2021/12/01 08:00:46;;;;;;;19.60;1.95;;;;;;;8.92;80.69;98960.88;5068607;28;20486;-42
2021/12/01 08:03:11;;;;;;;16.50;2.15;;;;;;;8.97;80.52;98979.84;5068283;28;20025;-41
2021/12/01 08:05:37;;;;;;;17.65;2.30;;;;;;;8.97;83.09;98990.56;5068958;28;20036;-40
2021/12/01 08:08:04;;;;;;;17.00;2.63;;;;;;;8.84;85.82;98996.03;5067926;28;20070;-41
2021/12/01 08:10:29;;;;;;;21.52;2.45;;;;;;;8.73;86.64;98980.63;5059475;28;20040;-41
2021/12/01 08:12:56;;;;;;;21.15;2.35;;;;;;;8.66;86.88;98998.59;5069132;28;20032;-40
2021/12/01 08:15:21;;;;;;;14.73;2.03;;;;;;;8.56;87.33;98981.13;5067651;28;20025;-41
2021/12/01 08:17:47;;;;;;;16.65;1.95;;;;;;;8.57;87.46;99006.09;5069061;28;20338;-41
2021/12/01 08:20:12;;;;;;;20.10;2.35;;;;;;;8.54;87.97;98988.56;5068603;28;20052;-41
2021/12/01 08:22:37;;;;;;;21.95;1.65;;;;;;;8.51;88.30;99002.41;5068783;28;20512;-41
2021/12/01 08:25:04;;;;;;;12.77;1.88;;;;;;;8.50;86.48;98998.06;5068836;28;20044;-41
2021/12/01 08:27:29;;;;;;;14.95;1.77;;;;;;;8.58;85.74;98991.63;5068135;28;20037;-41
2021/12/01 08:29:55;;;;;;;11.65;1.45;;;;;;;8.57;85.13;99000.72;5068643;28;20115;-42
2021/12/01 08:32:21;;;;;;;9.68;2.03;;;;;;;8.61;85.24;98990.38;5069232;28;20036;-39
2021/12/01 08:34:49;;;;;;;20.33;2.35;;;;;;;8.66;85.45;98990.56;5071877;28;20028;-42
2021/12/01 08:37:18;;;;;;;24.35;3.10;;;;;;;8.68;85.64;98985.81;5059729;28;20068;-40
2021/12/01 08:39:43;;;;;;;8.45;1.50;;;;;;;8.67;85.41;99006.44;5055874;28;20107;-41
2021/12/01 08:42:10;;;;;;;21.80;2.03;;;;;;;8.63;85.64;99001.72;5062736;28;20468;-40
2021/12/01 08:44:35;;;;;;;13.43;1.45;;;;;;;8.64;87.35;99011.44;5047146;28;20497;-41
2021/12/01 08:47:02;;;;;;;18.35;1.48;;;;;;;8.59;87.91;99021.97;5053132;28;20059;-40
2021/12/01 08:49:27;;;;;;;13.95;2.15;;;;;;;8.46;88.03;99025.53;5059071;28;20044;-41
2021/12/01 08:51:53;;;;;;;18.00;1.63;;;;;;;8.42;88.81;99045.75;5047333;28;20038;-40
2021/12/01 08:54:18;;;;;;;17.75;1.85;;;;;;;8.37;88.68;99032.94;5048405;28;20037;-41
2021/12/01 08:56:43;;;;;;;18.75;1.85;;;;;;;8.30;88.93;99041.03;5039828;28;20022;-41
2021/12/01 08:59:09;;;;;;;14.35;1.50;;;;;;;8.34;89.70;99033.38;5034657;28;20029;-41
2021/12/01 09:01:34;;;;;;;26.73;2.28;;;;;;;8.39;89.61;99025.53;5029802;28;20037;-40
2021/12/01 09:04:01;;;;;;;12.48;1.77;;;;;;;8.45;87.36;99032.75;5033159;28;20041;-39
2021/12/01 09:06:27;;;;;;;14.02;2.92;;;;;;;8.51;87.27;99028.41;5033416;28;20047;-40
2021/12/01 09:08:52;;;;;;;13.70;2.25;;;;;;;8.47;87.96;99046.75;5034671;28;20528;-40
2021/12/01 09:11:17;;;;;;;17.58;2.30;;;;;;;8.42;89.35;99057.28;5022749;28;20029;-44
2021/12/01 09:13:43;;;;;;;20.77;1.75;;;;;;;8.29;90.57;99057.28;5034490;28;20038;-46
2021/12/01 09:16:08;;;;;;;13.02;2.20;;;;;;;8.09;90.80;99066.22;5033962;28;20038;-45
2021/12/01 09:18:34;;;;;;;12.10;2.60;;;;;;;8.02;90.23;99070.75;5034474;28;20477;-44
2021/12/01 09:21:00;;;;;;;25.38;2.25;;;;;;;7.97;90.97;99065.19;5033812;28;20362;-44
2021/12/01 09:23:26;;;;;;;22.70;2.13;;;;;;;7.93;90.84;99066.66;5032896;28;20029;-43
2021/12/01 09:25:52;;;;;;;13.15;1.90;;;;;;;7.89;90.60;99057.38;5034211;28;20537;-43
2021/12/01 09:28:19;;;;;;;14.43;2.30;;;;;;;7.91;90.31;99056.16;5027364;28;20029;-42
2021/12/01 09:30:45;;;;;;;12.25;2.45;;;;;;;7.94;89.20;99056.78;5044272;28;20090;-41
2021/12/01 09:33:11;;;;;;;20.60;2.28;;;;;;;8.03;88.76;99058.19;5048537;28;20104;-41
2021/12/01 09:35:37;;;;;;;23.95;3.05;;;;;;;8.07;88.52;99065.59;5033988;28;20416;-41
2021/12/01 09:38:02;;;;;;;18.25;2.38;;;;;;;8.16;88.68;99066.19;5034185;28;20030;-41
2021/12/01 09:40:28;;;;;;;18.77;1.77;;;;;;;8.19;87.75;99083.69;5031736;28;20037;-40
2021/12/01 09:42:54;;;;;;;22.08;2.33;;;;;;;8.19;86.95;99081.03;5032178;28;20060;-40
2021/12/01 09:45:22;;;;;;;21.67;2.28;;;;;;;8.18;87.25;99087.44;5031197;28;20581;-41
2021/12/01 09:47:48;;;;;;;21.08;2.85;;;;;;;8.20;86.73;99072.78;5033396;28;20025;-39
2021/12/01 09:50:15;;;;;;;27.00;3.25;;;;;;;8.18;87.39;99082.88;5033685;28;20053;-40
2021/12/01 09:52:41;;;;;;;20.55;2.08;;;;;;;8.13;88.63;99086.19;5032842;28;20112;-40
2021/12/01 09:55:07;;;;;;;15.23;2.00;;;;;;;8.02;88.81;99094.88;5033692;28;20056;-39
2021/12/01 09:57:33;;;;;;;22.85;2.22;;;;;;;8.00;88.33;99080.84;5033017;28;20080;-40
2021/12/01 09:59:59;;;;;;;20.40;2.53;;;;;;;8.04;88.54;99084.78;5033996;28;20033;-39
2021/12/01 10:02:25;;;;;;;25.98;2.38;;;;;;;8.04;89.63;99095.50;5033053;28;20025;-39
2021/12/01 10:04:51;;;;;;;14.00;2.00;;;;;;;8.06;89.11;99080.03;5033383;28;20029;-40
2021/12/01 10:07:35;;;;;;;18.92;2.33;;;;;;;8.12;89.79;99073.84;5032237;28;20091;-41
2021/12/01 10:10:07;;;;;;;28.33;2.92;;;;;;;8.18;88.16;99084.75;5031769;28;20029;-41
2021/12/01 10:12:50;;;;;;;36.63;2.47;;;;;;;8.20;88.03;99080.00;5033404;28;20029;-41
2021/12/01 10:15:28;;;;;;;21.25;2.55;;;;;;;8.25;86.94;99075.66;5033525;28;20029;-41
2021/12/01 10:18:08;;;;;;;20.17;2.10;;;;;;;8.34;85.80;99084.28;5033908;28;20474;-41
2021/12/01 10:20:34;;;;;;;16.23;2.80;;;;;;;8.43;85.28;99084.94;5032610;28;20029;-42
2021/12/01 10:23:11;;;;;;;22.90;2.20;;;;;;;8.51;83.93;99072.13;5031753;28;20055;-41
2021/12/01 10:25:38;;;;;;;14.98;1.85;;;;;;;8.57;84.73;99079.28;5032278;28;20040;-41
2021/12/01 10:28:04;;;;;;;24.55;2.55;;;;;;;8.59;84.22;99078.28;5032738;28;20492;-40
2021/12/01 10:30:42;;;;;;;29.67;2.83;;;;;;;8.50;84.71;99075.00;5033158;28;20033;-41
2021/12/01 10:33:09;;;;;;;23.67;3.58;;;;;;;8.52;83.73;99075.63;5033160;28;20034;-41
2021/12/01 10:35:36;;;;;;;15.65;2.03;;;;;;;8.53;83.23;99072.72;5032116;28;20029;-40
2021/12/01 10:38:02;;;;;;;22.55;1.75;;;;;;;8.61;83.34;99071.69;5032832;28;20492;-41
2021/12/01 10:40:28;;;;;;;22.33;2.35;;;;;;;8.54;82.90;99060.16;5032878;28;20021;-41
2021/12/01 10:43:05;;;;;;;23.30;2.08;;;;;;;8.53;82.98;99072.72;5032016;28;20473;-41
2021/12/01 10:45:35;;;;;;;18.48;1.95;;;;;;;8.55;82.62;99077.88;5026918;28;20124;-40
2021/12/01 10:48:02;;;;;;;16.02;1.98;;;;;;;8.52;80.84;99076.44;5032843;28;20047;-41
2021/12/01 10:50:31;;;;;;;18.65;2.00;;;;;;;8.57;82.33;99076.63;5032590;28;20021;-41
2021/12/01 10:53:07;;;;;;;13.32;1.85;;;;;;;8.55;81.10;99062.59;5046233;28;20568;-41
2021/12/01 10:55:33;;;;;;;24.50;2.63;;;;;;;8.58;81.00;99077.44;5032795;28;20029;-41
2021/12/01 10:58:03;;;;;;;15.02;2.08;;;;;;;8.57;81.52;99081.97;5032776;28;20030;-41
2021/12/01 11:00:32;;;;;;;9.18;1.40;;;;;;;8.62;81.42;99064.44;5032810;28;20032;-41
2021/12/01 11:03:09;;;;;;;16.50;1.70;;;;;;;8.67;80.92;99081.53;5032832;28;20057;-42
2021/12/01 11:05:36;;;;;;;;;;;;;;;8.70;80.23;99074.94;5031999;28;20400;-41
2021/12/01 11:08:21;;;;;;;23.58;2.03;;;;;;;8.73;80.58;99083.34;5013394;28;19921;-42
2021/12/01 11:10:59;;;;;;;16.45;2.60;;;;;;;8.73;80.14;99072.63;5013354;28;20497;-41
2021/12/01 11:13:25;;;;;;;21.60;2.20;;;;;;;8.78;80.30;99077.38;5011793;28;20030;-42
2021/12/01 11:15:56;;;;;;;19.85;2.30;;;;;;;8.76;80.45;99079.44;5014601;28;20057;-42
2021/12/01 11:18:25;;;;;;;23.70;3.35;;;;;;;8.71;80.19;99073.88;5031785;28;20026;-42
2021/12/01 11:21:15;;;;;;;14.30;1.95;;;;;;;8.72;79.75;99068.31;5032684;28;20044;-41
2021/12/01 11:23:44;;;;;;;17.42;2.10;;;;;;;8.79;79.85;99079.00;5033546;28;20041;-41
2021/12/01 11:26:11;;;;;;;17.80;2.20;;;;;;;8.76;79.00;99074.06;5035924;28;20030;-42
2021/12/01 11:28:43;;;;;;;26.73;2.50;;;;;;;8.81;79.24;99076.94;5044378;28;20041;-41
2021/12/01 11:31:13;;;;;;;23.73;2.53;;;;;;;8.84;79.31;99071.13;5032823;28;20524;-41
2021/12/01 11:33:44;;;;;;;22.27;3.15;;;;;;;8.79;77.86;99074.47;5031244;28;20029;-41
2021/12/01 11:36:11;;;;;;;18.55;2.95;;;;;;;8.78;78.76;99078.19;5032703;28;20084;-41
2021/12/01 11:38:37;;;;;;;17.42;2.13;;;;;;;8.78;79.28;99072.81;5032181;28;20025;-43